createdAt,value
2023-01-19T00:03:16.255Z,98936.41
2023-01-19T00:13:19.696Z,98916.81
2023-01-19T00:23:24.399Z,98917.06
2023-01-19T00:33:27.586Z,98912.88
2023-01-19T00:43:32.121Z,98935.78
2023-01-19T00:53:35.295Z,98926.31
2023-01-19T01:03:39.834Z,98922.97
2023-01-19T01:13:43.688Z,98914.06
2023-01-19T01:23:48.573Z,98904.84
2023-01-19T01:33:51.700Z,98888.28
2023-01-19T01:43:58.612Z,98894.53
2023-01-19T01:54:08.052Z,98898.94
2023-01-19T02:04:12.587Z,98901.53
2023-01-19T02:14:15.712Z,98919.78
2023-01-19T02:24:20.533Z,98947.47
2023-01-19T02:34:23.939Z,98913.19
2023-01-19T02:44:29.229Z,98912.72
2023-01-19T02:54:46.800Z,98931.75
2023-01-19T03:05:00.663Z,98900.75
2023-01-19T03:15:10.990Z,98911.91
2023-01-19T03:25:15.698Z,98917.22
2023-01-19T03:35:20.581Z,98958.69
2023-01-19T03:45:25.298Z,98956.06
2023-01-19T03:55:28.714Z,98873.41
2023-01-19T04:05:33.686Z,98873.56
2023-01-19T04:15:36.898Z,98902.84
2023-01-19T04:25:41.476Z,98924.41
2023-01-19T04:35:45.948Z,98906.31
2023-01-19T04:45:50.536Z,98901.06
2023-01-19T04:55:57.036Z,98900.97
2023-01-19T05:06:01.505Z,98883.72
2023-01-19T05:16:04.923Z,98878.53
2023-01-19T05:26:10.417Z,98936.16
2023-01-19T05:36:13.619Z,98929.19
2023-01-19T05:46:18.284Z,98943.69
2023-01-19T05:56:21.331Z,98949.66
2023-01-19T06:06:25.845Z,98930.62
2023-01-19T06:16:29.063Z,98914.16
2023-01-19T06:26:33.821Z,98890.94
2023-01-19T06:36:37.182Z,98887.34
2023-01-19T06:46:41.719Z,98890.56
2023-01-19T06:56:44.948Z,98912.06
2023-01-19T07:06:50.116Z,98935.28
2023-01-19T07:16:53.692Z,98920.56
2023-01-19T07:26:58.570Z,98923.06
2023-01-19T07:37:01.920Z,98906.59
2023-01-19T07:47:07.551Z,98951.44
2023-01-19T07:57:10.814Z,98940.28
2023-01-19T08:07:15.444Z,98933.22
2023-01-19T08:17:19.444Z,98944.16
2023-01-19T08:27:24.121Z,98933.66
2023-01-19T08:37:27.333Z,98942.91
2023-01-19T08:47:32.110Z,98928.06
2023-01-19T08:57:35.382Z,98934.00
2023-01-19T09:07:40.227Z,98944.94
2023-01-19T09:17:43.719Z,98935.41
2023-01-19T09:27:48.561Z,98938.00
2023-01-19T09:37:51.772Z,98939.00
2023-01-19T09:47:57.231Z,98942.16
2023-01-19T09:58:00.698Z,98935.16
2023-01-19T10:08:17.528Z,98932.72
2023-01-19T10:18:25.635Z,98923.44
2023-01-19T10:28:30.129Z,98947.56
2023-01-19T10:38:34.550Z,98949.13
2023-01-19T10:48:40.382Z,98947.72
2023-01-19T10:58:43.696Z,98952.00
2023-01-19T11:08:50.335Z,98967.59
2023-01-19T11:18:55.972Z,98965.22
2023-01-19T11:29:02.178Z,98975.84
2023-01-19T11:39:23.593Z,98974.19
2023-01-19T11:49:33.483Z,98980.22
2023-01-19T11:59:36.677Z,98978.69
2023-01-19T12:09:44.291Z,99001.06
2023-01-19T12:19:54.817Z,99002.72
2023-01-19T12:29:59.759Z,99017.19
2023-01-19T12:40:06.745Z,99029.47
2023-01-19T12:50:19.222Z,99031.28
2023-01-19T13:00:36.886Z,99045.75
2023-01-19T13:11:20.851Z,99051.06
2023-01-19T13:21:30.956Z,99071.56
2023-01-19T13:31:36.202Z,99083.94
2023-01-19T13:41:41.847Z,99112.53
2023-01-19T13:51:45.032Z,99137.34
2023-01-19T14:01:51.118Z,99156.81
2023-01-19T14:12:14.125Z,99166.66
2023-01-19T14:22:19.346Z,99176.00
2023-01-19T14:32:23.613Z,99189.97
2023-01-19T14:42:30.431Z,99182.16
2023-01-19T14:52:36.127Z,99163.94
2023-01-19T15:02:40.734Z,99214.44
2023-01-19T15:12:43.970Z,99207.28
2023-01-19T15:22:48.733Z,99224.41
2023-01-19T15:32:52.100Z,99257.97
2023-01-19T15:42:56.728Z,99265.84
2023-01-19T15:52:59.801Z,99267.59
2023-01-19T16:03:04.614Z,99285.56
2023-01-19T16:13:07.790Z,99315.81
2023-01-19T16:23:15.837Z,99336.53
2023-01-19T16:33:19.105Z,99372.91
2023-01-19T16:43:23.680Z,99384.22
2023-01-19T16:53:26.840Z,99400.63
2023-01-19T17:03:32.171Z,99431.75
2023-01-19T17:13:35.521Z,99458.50
2023-01-19T17:23:43.969Z,99455.94
2023-01-19T17:33:48.889Z,99485.22
2023-01-19T17:43:54.226Z,99497.34
2023-01-19T17:53:57.527Z,99502.44
2023-01-19T18:04:02.720Z,99507.66
2023-01-19T18:14:06.700Z,99530.06
2023-01-19T18:24:11.363Z,99520.63
2023-01-19T18:34:14.980Z,99531.84
2023-01-19T18:44:19.731Z,99550.87
2023-01-19T18:54:22.848Z,99546.56
2023-01-19T19:04:27.713Z,99546.56
2023-01-19T19:14:33.149Z,99556.81
2023-01-19T19:24:37.612Z,99574.16
2023-01-19T19:34:50.002Z,99583.66
2023-01-19T19:44:55.065Z,99603.56
2023-01-19T19:54:58.453Z,99605.34
2023-01-19T20:05:03.323Z,99631.16
2023-01-19T20:15:07.697Z,99639.88
2023-01-19T20:25:12.705Z,99652.88
2023-01-19T20:35:16.334Z,99658.75
2023-01-19T20:45:21.166Z,99644.22
2023-01-19T20:55:24.362Z,99660.38
2023-01-19T21:05:29.208Z,99677.62
2023-01-19T21:15:32.609Z,99673.37
2023-01-19T21:25:38.319Z,99667.34
2023-01-19T21:35:41.541Z,99672.50
2023-01-19T21:45:46.772Z,99685.34
2023-01-19T21:55:50.030Z,99693.34
2023-01-19T22:05:55.876Z,99724.19
2023-01-19T22:16:02.397Z,99801.22
2023-01-19T22:26:07.288Z,99753.50
2023-01-19T22:36:12.702Z,99737.81
2023-01-19T22:46:20.364Z,99755.06
2023-01-19T22:56:24.717Z,99746.28
2023-01-19T23:06:31.189Z,99732.44
2023-01-19T23:16:34.447Z,99733.19
2023-01-19T23:26:39.285Z,99712.59
2023-01-19T23:36:43.090Z,99696.25
2023-01-19T23:46:48.018Z,99713.59
2023-01-19T23:56:51.113Z,99728.28
